createdAt,value
2023-08-31T00:01:27.160Z,97862.56
2023-08-31T00:04:01.260Z,97864.91
2023-08-31T00:06:39.254Z,97867.44
2023-08-31T00:09:16.556Z,97862.34
2023-08-31T00:11:44.472Z,97850.09
2023-08-31T00:14:15.057Z,97869.31
2023-08-31T00:16:46.659Z,97879.78
2023-08-31T00:19:18.706Z,97876.09
2023-08-31T00:21:49.681Z,97889.41
2023-08-31T00:24:22.989Z,97889.41
2023-08-31T00:26:53.412Z,97877.22
2023-08-31T00:29:22.500Z,97877.66
2023-08-31T00:32:01.790Z,97873.00
2023-08-31T00:34:33.551Z,97863.38
2023-08-31T00:37:06.108Z,97871.38
2023-08-31T00:39:40.099Z,97871.13
2023-08-31T00:42:10.977Z,97884.72
2023-08-31T00:44:44.399Z,97884.41
2023-08-31T00:47:18.180Z,97890.78
2023-08-31T00:49:51.125Z,97896.91
2023-08-31T00:52:26.150Z,97897.91
2023-08-31T00:54:59.133Z,97905.22
2023-08-31T00:57:31.701Z,97900.38
2023-08-31T01:00:10.290Z,97910.16
2023-08-31T01:03:16.630Z,97912.41
2023-08-31T01:06:06.421Z,97911.94
2023-08-31T01:09:17.059Z,97918.31
2023-08-31T01:12:10.031Z,97918.16
2023-08-31T01:14:45.910Z,97927.69
2023-08-31T01:17:29.277Z,97929.22
2023-08-31T01:20:04.031Z,97925.78
2023-08-31T01:23:01.395Z,97928.75
2023-08-31T01:25:42.515Z,97914.53
2023-08-31T01:28:19.430Z,97935.03
2023-08-31T01:30:57.105Z,97930.03
2023-08-31T01:33:31.141Z,97929.94
2023-08-31T01:36:10.693Z,97932.25
2023-08-31T01:39:03.364Z,97937.56
2023-08-31T01:41:37.366Z,97939.78
2023-08-31T01:44:10.335Z,97937.44
2023-08-31T01:46:40.571Z,97934.22
2023-08-31T01:49:12.476Z,97921.31
2023-08-31T01:51:49.106Z,97937.44
2023-08-31T01:54:20.147Z,97931.78
2023-08-31T01:56:48.336Z,97944.91
2023-08-31T01:59:22.805Z,97933.09
2023-08-31T02:01:57.077Z,97939.81
2023-08-31T02:04:29.946Z,97937.63
2023-08-31T02:07:00.841Z,97944.56
2023-08-31T02:09:38.143Z,97940.41
2023-08-31T02:12:19.781Z,97935.88
2023-08-31T02:14:55.483Z,97955.34
2023-08-31T02:17:26.450Z,97953.47
2023-08-31T02:20:03.983Z,97937.25
2023-08-31T02:22:38.404Z,97952.72
2023-08-31T02:25:08.528Z,97954.78
2023-08-31T02:27:39.015Z,97950.75
2023-08-31T02:30:11.007Z,97960.47
2023-08-31T02:32:43.371Z,97958.84
2023-08-31T02:35:18.414Z,97961.72
2023-08-31T02:40:39.503Z,97960.13
2023-08-31T02:43:24.121Z,97968.97
2023-08-31T02:45:54.220Z,97970.91
2023-08-31T02:48:26.579Z,97973.69
2023-08-31T02:50:57.848Z,97976.03
2023-08-31T02:53:35.516Z,97973.13
2023-08-31T02:56:06.668Z,97985.09
2023-08-31T02:58:40.773Z,97981.50
2023-08-31T03:01:23.618Z,97979.16
2023-08-31T03:03:58.133Z,97984.28
2023-08-31T03:06:29.074Z,97985.91
2023-08-31T03:09:01.258Z,97988.56
2023-08-31T03:11:47.361Z,97997.75
2023-08-31T03:14:15.083Z,97998.44
2023-08-31T03:16:47.108Z,97999.72
2023-08-31T03:19:17.563Z,97996.94
2023-08-31T03:21:50.427Z,97992.16
2023-08-31T03:24:20.835Z,98001.00
2023-08-31T03:26:54.373Z,98007.97
2023-08-31T03:29:36.979Z,98001.47
2023-08-31T03:32:09.784Z,98013.31
2023-08-31T03:34:40.442Z,98012.25
2023-08-31T03:37:12.481Z,98012.25
2023-08-31T03:39:44.940Z,98019.00
2023-08-31T03:42:14.657Z,98017.03
2023-08-31T03:44:49.469Z,98019.69
2023-08-31T03:47:25.122Z,98019.91
2023-08-31T03:49:55.899Z,98029.06
2023-08-31T03:52:24.833Z,98024.31
2023-08-31T03:54:54.176Z,98028.25
2023-08-31T03:57:26.825Z,98034.06
2023-08-31T04:00:06.190Z,98028.63
2023-08-31T04:05:47.840Z,98032.81
2023-08-31T04:08:16.330Z,98025.59
2023-08-31T04:10:46.518Z,98043.44
2023-08-31T04:13:29.928Z,98024.19
2023-08-31T04:16:06.794Z,98043.22
2023-08-31T04:18:39.981Z,98046.38
2023-08-31T04:21:10.923Z,98045.31
2023-08-31T04:23:42.888Z,98048.09
2023-08-31T04:26:16.326Z,98050.41
2023-08-31T04:31:37.629Z,98061.56
2023-08-31T04:34:06.974Z,98051.13
2023-08-31T04:36:39.124Z,98053.88
2023-08-31T04:39:09.409Z,98051.81
2023-08-31T04:41:40.797Z,98046.47
2023-08-31T04:44:12.451Z,98053.19
2023-08-31T04:46:43.369Z,98050.31
2023-08-31T04:49:15.382Z,98052.03
2023-08-31T04:51:49.386Z,98054.13
2023-08-31T04:54:23.332Z,98062.94
2023-08-31T04:56:54.501Z,98062.59
2023-08-31T04:59:23.322Z,98048.00
2023-08-31T05:01:55.662Z,98071.78
2023-08-31T05:04:32.982Z,98072.25
2023-08-31T05:07:02.048Z,98077.22
2023-08-31T05:09:38.642Z,98080.59
2023-08-31T05:12:10.898Z,98086.84
2023-08-31T05:14:47.456Z,98078.72
2023-08-31T05:17:23.042Z,98097.91
2023-08-31T05:20:01.153Z,98099.63
2023-08-31T05:22:33.014Z,98107.09
2023-08-31T05:25:05.704Z,98102.53
2023-08-31T05:27:36.943Z,98118.34
2023-08-31T05:32:57.164Z,98120.53
2023-08-31T05:35:29.277Z,98122.84
2023-08-31T05:38:01.998Z,98129.94
2023-08-31T05:40:33.155Z,98133.75
2023-08-31T05:43:14.050Z,98133.31
2023-08-31T05:45:43.629Z,98142.59
2023-08-31T05:48:17.917Z,98140.06
2023-08-31T05:50:56.040Z,98150.16
2023-08-31T05:53:26.695Z,98146.91
2023-08-31T05:56:05.847Z,98151.41
2023-08-31T05:58:50.126Z,98149.22
2023-08-31T06:01:21.205Z,98152.25
2023-08-31T06:03:54.147Z,98147.59
2023-08-31T06:06:25.289Z,98152.75
2023-08-31T06:11:42.951Z,98160.34
2023-08-31T06:14:21.918Z,98159.78
2023-08-31T06:16:55.852Z,98168.72
2023-08-31T06:19:28.669Z,98167.00
2023-08-31T06:21:57.613Z,98174.66
2023-08-31T06:24:26.930Z,98169.31
2023-08-31T06:26:57.910Z,98174.66
2023-08-31T06:29:31.914Z,98171.56
2023-08-31T06:32:07.570Z,98180.03
2023-08-31T06:34:51.276Z,98187.00
2023-08-31T06:37:21.780Z,98193.63
2023-08-31T06:39:51.858Z,98198.59
2023-08-31T06:42:23.416Z,98197.13
2023-08-31T06:44:58.813Z,98206.97
2023-08-31T06:47:35.153Z,98204.41
2023-08-31T06:50:05.165Z,98204.81
2023-08-31T06:52:33.418Z,98214.53
2023-08-31T06:55:03.080Z,98210.59
2023-08-31T06:57:33.923Z,98209.19
2023-08-31T07:02:53.100Z,98214.75
2023-08-31T07:05:27.139Z,98221.09
2023-08-31T07:07:59.794Z,98214.44
2023-08-31T07:10:32.788Z,98210.38
2023-08-31T07:16:02.956Z,98223.38
2023-08-31T07:18:38.786Z,98225.47
2023-08-31T07:21:11.924Z,98234.09
2023-08-31T07:23:47.867Z,98234.94
2023-08-31T07:26:21.011Z,98238.13
2023-08-31T07:28:52.580Z,98244.63
2023-08-31T07:31:26.973Z,98243.31
2023-08-31T07:34:12.084Z,98237.25
2023-08-31T07:36:51.473Z,98245.97
2023-08-31T07:39:22.432Z,98243.72
2023-08-31T07:41:51.698Z,98248.19
2023-08-31T07:44:31.091Z,98254.25
2023-08-31T07:46:59.541Z,98259.59
2023-08-31T07:49:30.769Z,98245.34
2023-08-31T07:51:59.077Z,98249.97
2023-08-31T07:54:34.940Z,98246.53
2023-08-31T07:57:11.826Z,98257.25
2023-08-31T07:59:54.282Z,98266.06
2023-08-31T08:02:35.873Z,98260.22
2023-08-31T08:05:24.051Z,98267.38
2023-08-31T08:07:53.362Z,98266.63
2023-08-31T08:10:21.088Z,98268.25
2023-08-31T08:12:59.174Z,98267.53
2023-08-31T08:15:30.341Z,98265.00
2023-08-31T08:18:01.874Z,98270.34
2023-08-31T08:20:48.308Z,98270.34
2023-08-31T08:23:18.579Z,98270.41
2023-08-31T08:25:51.335Z,98278.97
2023-08-31T08:28:21.806Z,98276.84
2023-08-31T08:31:10.341Z,98278.81
2023-08-31T08:33:49.890Z,98284.31
2023-08-31T08:36:23.439Z,98279.47
2023-08-31T08:39:01.490Z,98274.34
2023-08-31T08:41:36.607Z,98288.78
2023-08-31T08:44:22.138Z,98293.66
2023-08-31T08:46:57.087Z,98280.03
2023-08-31T08:49:28.097Z,98282.19
2023-08-31T08:52:01.107Z,98281.44
2023-08-31T08:54:32.808Z,98280.59
2023-08-31T08:57:02.128Z,98287.69
2023-08-31T08:59:45.004Z,98297.09
2023-08-31T09:02:15.859Z,98295.44
2023-08-31T09:04:46.514Z,98287.66
2023-08-31T09:07:24.997Z,98290.44
2023-08-31T09:10:00.805Z,98293.41
2023-08-31T09:12:31.211Z,98295.09
2023-08-31T09:15:05.052Z,98298.19
2023-08-31T09:17:48.214Z,98296.94
2023-08-31T09:20:20.323Z,98304.25
2023-08-31T09:22:52.039Z,98300.38
2023-08-31T09:25:22.559Z,98304.81
2023-08-31T09:27:53.486Z,98299.56
2023-08-31T09:30:23.365Z,98299.28
2023-08-31T09:33:01.163Z,98300.97
2023-08-31T09:35:31.699Z,98300.03
2023-08-31T09:38:05.925Z,98313.09
2023-08-31T09:40:46.634Z,98314.06
2023-08-31T09:43:23.737Z,98309.53
2023-08-31T09:45:58.292Z,98306.00
2023-08-31T09:48:29.339Z,98314.41
2023-08-31T09:51:08.073Z,98308.28
2023-08-31T09:53:38.737Z,98314.63
2023-08-31T09:56:18.031Z,98313.38
2023-08-31T09:58:49.937Z,98312.63
2023-08-31T10:01:29.476Z,98309.75
2023-08-31T10:04:01.503Z,98307.13
2023-08-31T10:06:30.037Z,98315.88
2023-08-31T10:08:59.754Z,98314.78
2023-08-31T10:11:35.284Z,98308.16
2023-08-31T10:14:06.560Z,98306.16
2023-08-31T10:16:42.387Z,98300.06
2023-08-31T10:19:14.442Z,98299.97
2023-08-31T10:21:56.943Z,98300.31
2023-08-31T10:25:15.881Z,98293.28
2023-08-31T10:27:58.069Z,98285.16
2023-08-31T10:30:33.157Z,98290.09
2023-08-31T10:33:27.355Z,98296.03
2023-08-31T10:36:03.599Z,98298.09
2023-08-31T10:38:41.532Z,98304.41
2023-08-31T10:41:13.956Z,98297.78
2023-08-31T10:44:04.258Z,98306.88
2023-08-31T10:46:47.414Z,98290.94
2023-08-31T10:49:20.680Z,98287.91
2023-08-31T10:52:32.677Z,98306.75
2023-08-31T10:55:08.934Z,98301.81
2023-08-31T10:57:38.182Z,98302.75
2023-08-31T11:00:12.152Z,98304.28
2023-08-31T11:02:49.389Z,98302.09
2023-08-31T11:05:31.997Z,98303.84
2023-08-31T11:08:03.841Z,98298.88
2023-08-31T11:10:36.612Z,98304.47
2023-08-31T11:13:09.678Z,98304.59
2023-08-31T11:15:40.750Z,98305.94
2023-08-31T11:18:18.860Z,98284.94
2023-08-31T11:23:54.494Z,98279.84
2023-08-31T11:26:33.951Z,98262.31
2023-08-31T11:29:13.754Z,98264.88
2023-08-31T11:31:47.435Z,98258.00
2023-08-31T11:37:04.811Z,98265.38
2023-08-31T11:39:36.370Z,98249.78
2023-08-31T11:42:12.542Z,98265.19
2023-08-31T11:44:52.426Z,98261.22
2023-08-31T11:47:36.511Z,98271.25
2023-08-31T11:50:14.987Z,98274.03
2023-08-31T11:52:49.777Z,98280.09
2023-08-31T11:55:23.177Z,98279.84
2023-08-31T11:57:57.594Z,98270.06
2023-08-31T12:00:34.927Z,98273.16
2023-08-31T12:03:15.467Z,98270.22
2023-08-31T12:05:51.534Z,98277.88
2023-08-31T12:08:31.553Z,98283.78
2023-08-31T12:11:04.044Z,98275.19
2023-08-31T12:13:35.557Z,98289.34
2023-08-31T12:16:06.679Z,98284.91
2023-08-31T12:18:40.083Z,98281.38
2023-08-31T12:21:15.549Z,98285.00
2023-08-31T12:23:46.109Z,98281.16
2023-08-31T12:26:21.055Z,98283.78
2023-08-31T12:28:48.978Z,98287.75
2023-08-31T12:31:21.150Z,98284.13
2023-08-31T12:33:51.755Z,98280.88
2023-08-31T12:36:36.207Z,98284.94
2023-08-31T12:39:13.376Z,98271.28
2023-08-31T12:41:45.447Z,98279.63
2023-08-31T12:44:19.386Z,98282.09
2023-08-31T12:46:51.553Z,98277.16
2023-08-31T12:49:32.084Z,98283.72
2023-08-31T12:52:00.013Z,98282.34
2023-08-31T12:54:31.167Z,98275.09
2023-08-31T12:57:06.083Z,98279.50
2023-08-31T12:59:36.199Z,98279.91
2023-08-31T13:02:08.745Z,98272.25
2023-08-31T13:04:40.941Z,98277.09
2023-08-31T13:09:57.444Z,98279.44
2023-08-31T13:12:31.929Z,98278.28
2023-08-31T13:15:05.518Z,98261.66
2023-08-31T13:17:42.684Z,98273.84
2023-08-31T13:23:09.053Z,98260.47
2023-08-31T13:25:43.063Z,98261.66
2023-08-31T13:28:14.331Z,98253.50
2023-08-31T13:30:45.412Z,98258.31
2023-08-31T13:33:18.902Z,98255.47
2023-08-31T13:35:49.640Z,98249.47
2023-08-31T13:38:19.998Z,98249.88
2023-08-31T13:40:56.434Z,98251.78
2023-08-31T13:43:27.822Z,98250.16
2023-08-31T13:46:01.283Z,98244.69
2023-08-31T13:48:33.846Z,98244.31
2023-08-31T13:51:04.790Z,98240.28
2023-08-31T13:53:43.851Z,98239.09
2023-08-31T13:56:14.507Z,98247.22
2023-08-31T13:58:44.832Z,98245.56
2023-08-31T14:01:15.530Z,98238.69
2023-08-31T14:03:52.530Z,98243.13
2023-08-31T14:06:31.320Z,98243.19
2023-08-31T14:09:07.025Z,98239.56
2023-08-31T14:11:36.972Z,98243.19
2023-08-31T14:14:14.530Z,98242.78
2023-08-31T14:16:53.499Z,98243.59
2023-08-31T14:19:32.952Z,98239.13
2023-08-31T14:22:04.643Z,98242.38
2023-08-31T14:24:35.269Z,98242.31
2023-08-31T14:27:07.997Z,98239.44
2023-08-31T14:29:39.543Z,98235.41
2023-08-31T14:32:15.975Z,98249.91
2023-08-31T14:34:52.139Z,98238.22
2023-08-31T14:37:28.722Z,98241.91
2023-08-31T14:40:00.129Z,98247.50
2023-08-31T14:42:31.055Z,98257.59
2023-08-31T14:45:08.826Z,98251.97
2023-08-31T14:47:38.698Z,98265.69
2023-08-31T14:50:14.059Z,98265.56
2023-08-31T14:52:48.335Z,98264.19
2023-08-31T14:55:28.421Z,98250.84
2023-08-31T14:57:59.290Z,98265.78
2023-08-31T15:00:32.924Z,98271.78
2023-08-31T15:03:06.303Z,98262.28
2023-08-31T15:05:38.169Z,98277.06
2023-08-31T15:08:11.365Z,98269.31
2023-08-31T15:10:48.727Z,98272.03
2023-08-31T15:13:19.654Z,98271.47
2023-08-31T15:15:51.859Z,98268.16
2023-08-31T15:18:38.248Z,98264.34
2023-08-31T15:21:07.710Z,98268.22
2023-08-31T15:23:45.170Z,98277.72
2023-08-31T15:26:19.480Z,98270.00
2023-08-31T15:28:47.773Z,98284.38
2023-08-31T15:31:32.774Z,98281.03
2023-08-31T15:34:02.884Z,98283.31
2023-08-31T15:36:33.826Z,98269.34
2023-08-31T15:39:04.179Z,98280.66
2023-08-31T15:41:35.429Z,98290.22
2023-08-31T15:44:07.405Z,98287.06
2023-08-31T15:46:56.030Z,98293.41
2023-08-31T15:49:30.309Z,98279.53
2023-08-31T15:52:03.838Z,98294.44
2023-08-31T15:54:32.585Z,98278.63
2023-08-31T15:57:25.608Z,98293.94
2023-08-31T15:59:55.471Z,98300.34
2023-08-31T16:02:25.028Z,98303.38
2023-08-31T16:05:00.331Z,98299.91
2023-08-31T16:07:32.817Z,98302.19
2023-08-31T16:12:53.424Z,98304.94
2023-08-31T16:15:31.508Z,98311.63
2023-08-31T16:18:05.434Z,98317.44
2023-08-31T16:20:36.222Z,98313.69
2023-08-31T16:23:06.068Z,98309.56
2023-08-31T16:25:35.365Z,98313.66
2023-08-31T16:28:07.135Z,98315.56
2023-08-31T16:30:49.342Z,98321.31
2023-08-31T16:33:21.973Z,98327.25
2023-08-31T16:35:52.311Z,98327.91
2023-08-31T16:38:24.557Z,98326.09
2023-08-31T16:40:55.533Z,98316.56
2023-08-31T16:43:30.320Z,98322.25
2023-08-31T16:46:22.497Z,98329.84
2023-08-31T16:48:56.929Z,98302.38
2023-08-31T16:51:32.941Z,98341.06
2023-08-31T16:54:07.934Z,98336.31
2023-08-31T16:56:38.895Z,98341.28
2023-08-31T16:59:09.336Z,98340.75
2023-08-31T17:01:37.431Z,98337.66
2023-08-31T17:06:52.152Z,98337.94
2023-08-31T17:09:29.637Z,98335.81
2023-08-31T17:12:14.497Z,98343.78
2023-08-31T17:14:47.246Z,98348.41
2023-08-31T17:17:29.538Z,98350.03
2023-08-31T17:20:03.045Z,98356.75
2023-08-31T17:22:33.338Z,98360.22
2023-08-31T17:25:05.057Z,98357.22
2023-08-31T17:27:36.059Z,98360.41
2023-08-31T17:30:18.699Z,98368.72
2023-08-31T17:33:03.698Z,98374.22
2023-08-31T17:35:34.711Z,98380.75
2023-08-31T17:38:07.792Z,98382.47
2023-08-31T17:40:39.618Z,98374.63
2023-08-31T17:43:08.073Z,98386.72
2023-08-31T17:45:43.074Z,98383.66
2023-08-31T17:48:18.753Z,98382.28
2023-08-31T17:50:50.801Z,98388.78
2023-08-31T17:56:05.620Z,98396.19
2023-08-31T17:58:36.285Z,98406.59
2023-08-31T18:01:06.181Z,98411.38
2023-08-31T18:03:37.350Z,98420.94
2023-08-31T18:06:24.434Z,98419.34
2023-08-31T18:09:01.509Z,98411.47
2023-08-31T18:11:33.751Z,98407.78
2023-08-31T18:14:09.990Z,98412.66
2023-08-31T18:16:55.246Z,98429.81
2023-08-31T18:19:34.628Z,98430.16
2023-08-31T18:22:11.032Z,98434.69
2023-08-31T18:24:41.141Z,98425.94
2023-08-31T18:27:14.367Z,98419.56
2023-08-31T18:29:50.447Z,98423.09
2023-08-31T18:32:21.298Z,98419.91
2023-08-31T18:34:58.246Z,98410.16
2023-08-31T18:37:34.461Z,98428.97
2023-08-31T18:40:06.664Z,98426.97
2023-08-31T18:42:38.453Z,98412.34
2023-08-31T18:45:29.612Z,98426.41
2023-08-31T18:48:00.226Z,98417.75
2023-08-31T18:50:31.040Z,98438.94
2023-08-31T18:53:03.683Z,98442.41
2023-08-31T18:55:36.390Z,98441.47
2023-08-31T18:58:11.386Z,98447.19
2023-08-31T19:00:44.566Z,98458.25
2023-08-31T19:03:17.129Z,98459.16
2023-08-31T19:05:47.276Z,98449.78
2023-08-31T19:08:28.940Z,98458.50
2023-08-31T19:10:58.449Z,98459.81
2023-08-31T19:13:26.361Z,98470.06
2023-08-31T19:15:59.203Z,98462.03
2023-08-31T19:18:36.232Z,98468.31
2023-08-31T19:21:18.270Z,98464.09
2023-08-31T19:23:59.532Z,98461.22
2023-08-31T19:26:43.788Z,98465.41
2023-08-31T19:29:17.268Z,98467.28
2023-08-31T19:31:47.882Z,98451.56
2023-08-31T19:34:18.158Z,98477.31
2023-08-31T19:36:48.158Z,98477.78
2023-08-31T19:39:21.909Z,98474.28
2023-08-31T19:41:52.412Z,98480.81
2023-08-31T19:44:26.832Z,98500.50
2023-08-31T19:46:59.209Z,98500.50
2023-08-31T19:49:44.707Z,98500.94
2023-08-31T19:52:15.977Z,98500.63
2023-08-31T19:54:46.404Z,98498.50
2023-08-31T19:57:18.802Z,98497.59
2023-08-31T19:59:51.174Z,98496.66
2023-08-31T20:02:23.347Z,98504.78
2023-08-31T20:04:53.528Z,98502.09
2023-08-31T20:07:25.256Z,98503.88
2023-08-31T20:12:54.243Z,98518.03
2023-08-31T20:15:36.894Z,98515.13
2023-08-31T20:18:08.331Z,98512.19
2023-08-31T20:20:39.341Z,98511.88
2023-08-31T20:23:09.624Z,98505.56
2023-08-31T20:25:40.422Z,98505.91
2023-08-31T20:28:22.886Z,98510.47
2023-08-31T20:30:54.444Z,98510.91
2023-08-31T20:33:23.522Z,98507.44
2023-08-31T20:36:14.030Z,98514.03
2023-08-31T20:38:55.802Z,98515.31
2023-08-31T20:41:31.082Z,98512.75
2023-08-31T20:44:06.134Z,98527.06
2023-08-31T20:46:45.970Z,98525.50
2023-08-31T20:49:18.816Z,98527.75
2023-08-31T20:51:52.277Z,98521.94
2023-08-31T20:54:23.480Z,98527.41
2023-08-31T20:56:53.823Z,98527.41
2023-08-31T20:59:35.789Z,98524.22
2023-08-31T21:02:11.971Z,98526.19
2023-08-31T21:04:41.731Z,98529.09
2023-08-31T21:07:10.442Z,98538.97
2023-08-31T21:09:45.613Z,98539.03
2023-08-31T21:12:16.593Z,98547.75
2023-08-31T21:14:44.376Z,98540.59
2023-08-31T21:17:15.167Z,98543.41
2023-08-31T21:19:45.821Z,98545.03
2023-08-31T21:22:30.322Z,98546.19
2023-08-31T21:25:04.421Z,98551.75
2023-08-31T21:27:37.708Z,98550.59
2023-08-31T21:30:09.119Z,98556.94
2023-08-31T21:32:50.097Z,98558.91
2023-08-31T21:35:20.623Z,98542.94
2023-08-31T21:37:51.735Z,98559.38
2023-08-31T21:40:21.982Z,98562.63
2023-08-31T21:42:55.227Z,98554.06
2023-08-31T21:45:25.887Z,98559.50
2023-08-31T21:47:59.713Z,98561.59
2023-08-31T21:50:33.922Z,98559.31
2023-08-31T21:53:03.134Z,98561.66
2023-08-31T21:55:33.488Z,98568.28
2023-08-31T21:58:07.680Z,98569.69
2023-08-31T22:00:36.524Z,98568.97
2023-08-31T22:03:11.014Z,98569.09
2023-08-31T22:05:43.008Z,98568.41
2023-08-31T22:08:13.192Z,98566.78
2023-08-31T22:10:45.055Z,98568.16
2023-08-31T22:13:16.185Z,98562.56
2023-08-31T22:15:58.364Z,98568.69
2023-08-31T22:18:35.770Z,98568.22
2023-08-31T22:23:56.969Z,98508.78
2023-08-31T22:26:26.984Z,98559.38
2023-08-31T22:28:58.449Z,98568.69
2023-08-31T22:31:40.060Z,98572.88
2023-08-31T22:34:17.447Z,98581.81
2023-08-31T22:37:03.396Z,98589.38
2023-08-31T22:39:36.345Z,98590.66
2023-08-31T22:42:23.508Z,98594.63
2023-08-31T22:45:00.182Z,98590.53
2023-08-31T22:47:41.846Z,98593.34
2023-08-31T22:50:28.092Z,98590.53
2023-08-31T22:52:58.794Z,98592.81
2023-08-31T22:55:40.486Z,98591.22
2023-08-31T22:58:10.466Z,98597.63
2023-08-31T23:00:38.544Z,98593.69
2023-08-31T23:03:08.580Z,98597.75
2023-08-31T23:05:37.227Z,98601.34
2023-08-31T23:08:17.667Z,98601.56
2023-08-31T23:10:51.326Z,98602.53
2023-08-31T23:13:22.493Z,98594.78
2023-08-31T23:15:53.096Z,98601.16
2023-08-31T23:18:22.322Z,98598.66
2023-08-31T23:20:53.375Z,98597.38
2023-08-31T23:23:23.504Z,98594.03
2023-08-31T23:25:59.808Z,98587.28
2023-08-31T23:28:48.268Z,98594.38
2023-08-31T23:31:22.325Z,98593.97
2023-08-31T23:33:56.834Z,98596.22
2023-08-31T23:36:36.777Z,98600.84
2023-08-31T23:39:10.838Z,98593.41
2023-08-31T23:41:43.416Z,98591.56
2023-08-31T23:44:18.548Z,98595.44
2023-08-31T23:46:52.502Z,98584.38
2023-08-31T23:49:27.224Z,98594.75
2023-08-31T23:52:01.408Z,98577.31
2023-08-31T23:54:37.927Z,98579.91
2023-08-31T23:57:08.764Z,98590.28
2023-08-31T23:59:39.593Z,98583.31
